createdAt,value
2019-05-23T00:00:00.882Z,6.0
2019-05-23T00:05:00.786Z,6.0
2019-05-23T00:10:00.630Z,5.6
2019-05-23T00:15:00.743Z,5.6
2019-05-23T00:20:00.602Z,5.4
2019-05-23T00:25:00.602Z,6.0
2019-05-23T00:30:00.614Z,5.7
2019-05-23T00:40:00.743Z,5.8
2019-05-23T00:45:00.792Z,6.2
2019-05-23T00:55:01.251Z,6.4
2019-05-23T01:00:00.611Z,6.4
2019-05-23T01:10:00.652Z,6.8
2019-05-23T01:15:00.703Z,6.8
2019-05-23T01:20:00.679Z,6.8
2019-05-23T01:25:00.724Z,7.4
2019-05-23T01:30:00.732Z,8.2
2019-05-23T01:35:00.728Z,8.2
2019-05-23T01:40:00.598Z,8.7
2019-05-23T01:45:00.674Z,9.3
2019-05-23T01:50:00.629Z,9.9
2019-05-23T01:55:01.184Z,9.8
2019-05-23T02:00:12.205Z,10.8
2019-05-23T02:05:05.879Z,12.1
2019-05-23T02:10:00.767Z,13.2
2019-05-23T02:15:00.690Z,13.2
2019-05-23T02:20:00.612Z,14.3
2019-05-23T02:25:00.619Z,14.1
2019-05-23T02:30:00.686Z,13.9
2019-05-23T02:35:00.939Z,13.7
2019-05-23T02:40:00.687Z,13.4
2019-05-23T02:45:00.710Z,13.0
2019-05-23T02:50:00.647Z,12.8
2019-05-23T02:55:00.803Z,12.6
2019-05-23T03:00:00.640Z,11.9
2019-05-23T03:20:01.467Z,12.0
2019-05-23T03:25:01.464Z,13.0
2019-05-23T03:30:01.263Z,12.7
2019-05-23T03:35:02.399Z,12.8
2019-05-23T03:40:01.272Z,12.5
2019-05-23T03:45:01.357Z,13.0
2019-05-23T03:50:01.274Z,12.9
2019-05-23T03:55:01.315Z,13.1
2019-05-23T04:00:03.533Z,13.1
2019-05-23T04:05:01.300Z,13.2
2019-05-23T04:10:01.316Z,13.2
2019-05-23T04:15:01.371Z,13.0
2019-05-23T04:20:01.309Z,13.0
2019-05-23T04:25:03.125Z,13.1
2019-05-23T04:30:01.562Z,13.6
2019-05-23T04:35:01.317Z,13.6
2019-05-23T04:40:01.263Z,13.8
2019-05-23T04:45:01.447Z,14.2
2019-05-23T04:50:01.272Z,14.9
2019-05-23T04:55:01.336Z,15.1
2019-05-23T05:00:01.306Z,15.5
2019-05-23T05:05:01.337Z,15.9
2019-05-23T05:10:01.263Z,16.4
2019-05-23T05:15:01.406Z,16.7
2019-05-23T05:20:01.268Z,16.8
2019-05-23T05:25:01.339Z,17.0
2019-05-23T05:30:02.103Z,16.8
2019-05-23T05:35:01.342Z,16.1
2019-05-23T05:40:01.367Z,15.8
2019-05-23T05:45:01.280Z,15.9
2019-05-23T05:50:01.286Z,15.3
2019-05-23T05:55:01.605Z,15.6
2019-05-23T06:00:01.306Z,15.2
2019-05-23T06:05:01.354Z,14.5
2019-05-23T06:10:01.386Z,13.7
2019-05-23T06:15:02.032Z,13.8
2019-05-23T06:20:01.291Z,12.9
2019-05-23T06:25:01.468Z,12.5
2019-05-23T06:30:01.321Z,12.0
2019-05-23T06:35:01.426Z,11.5
2019-05-23T06:40:01.334Z,10.8
2019-05-23T06:45:01.464Z,10.2
2019-05-23T06:50:01.327Z,9.8
2019-05-23T06:55:01.475Z,9.6
2019-05-23T07:00:01.491Z,8.8
2019-05-23T07:05:01.399Z,8.1
2019-05-23T07:10:02.328Z,7.3
2019-05-23T07:15:02.363Z,6.5
2019-05-23T07:25:01.523Z,5.9
2019-05-23T07:30:01.598Z,5.6
2019-05-23T07:35:01.325Z,6.1
2019-05-23T07:40:01.357Z,6.4
2019-05-23T07:45:01.618Z,7.1
2019-05-23T07:50:01.459Z,7.1
2019-05-23T07:55:01.358Z,7.3
2019-05-23T08:00:01.355Z,6.5
2019-05-23T08:05:01.882Z,6.8
2019-05-23T08:10:02.958Z,6.2
2019-05-23T08:15:01.533Z,6.3
2019-05-23T08:20:01.370Z,6.4
2019-05-23T08:25:01.340Z,7.0
2019-05-23T08:30:02.843Z,6.6
2019-05-23T08:35:01.858Z,6.6
2019-05-23T08:40:01.414Z,6.7
2019-05-23T08:45:01.364Z,6.7
2019-05-23T08:50:01.364Z,6.6
2019-05-23T08:55:01.455Z,6.6
2019-05-23T09:00:01.388Z,6.8
2019-05-23T09:10:01.365Z,7.1
2019-05-23T09:15:01.365Z,7.3
2019-05-23T09:20:01.367Z,7.6
2019-05-23T09:25:01.387Z,7.4
2019-05-23T09:30:01.481Z,7.6
2019-05-23T09:35:17.773Z,7.1
2019-05-23T09:40:01.352Z,6.7
2019-05-23T09:45:01.464Z,6.6
2019-05-23T09:50:01.467Z,6.6
2019-05-23T09:55:01.403Z,6.6
2019-05-23T10:00:01.542Z,7.1
2019-05-23T10:05:01.490Z,7.2
2019-05-23T10:10:11.543Z,7.3
2019-05-23T10:15:01.499Z,7.5
2019-05-23T10:20:01.399Z,7.3
2019-05-23T10:25:01.663Z,6.8
2019-05-23T10:30:01.423Z,7.1
2019-05-23T10:35:01.734Z,7.3
2019-05-23T10:40:01.607Z,7.3
2019-05-23T10:45:01.436Z,7.4
2019-05-23T10:55:01.450Z,7.6
2019-05-23T11:00:02.024Z,7.3
2019-05-23T11:05:14.575Z,7.3
2019-05-23T11:15:01.475Z,7.6
2019-05-23T11:20:01.591Z,7.3
2019-05-23T11:26:03.181Z,7.7
2019-05-23T11:31:01.413Z,7.7
2019-05-23T11:36:01.557Z,7.8
2019-05-23T11:41:11.404Z,7.8
2019-05-23T11:46:02.217Z,8.4
2019-05-23T11:51:01.414Z,8.4
2019-05-23T11:56:01.501Z,8.6
2019-05-23T12:01:01.618Z,9.2
2019-05-23T12:06:06.483Z,9.6
2019-05-23T12:11:01.402Z,9.4
2019-05-23T12:16:02.436Z,9.6
2019-05-23T12:21:01.368Z,10.1
2019-05-23T12:26:01.467Z,10.0
2019-05-23T12:31:01.350Z,9.7
2019-05-23T12:41:06.568Z,10.0
2019-05-23T12:46:06.604Z,10.2
2019-05-23T12:51:01.578Z,10.0
2019-05-23T12:56:06.541Z,10.5
2019-05-23T13:01:01.493Z,10.5
2019-05-23T13:06:06.488Z,10.2
2019-05-23T13:11:06.410Z,10.0
2019-05-23T13:16:01.543Z,9.8
2019-05-23T13:21:01.503Z,10.0
2019-05-23T13:26:01.514Z,10.0
2019-05-23T13:31:01.961Z,10.4
2019-05-23T13:36:01.521Z,10.4
2019-05-23T13:41:01.429Z,10.6
2019-05-23T13:46:01.468Z,10.2
2019-05-23T13:51:01.633Z,10.2
2019-05-23T13:56:01.596Z,10.7
2019-05-23T14:06:01.478Z,11.0
2019-05-23T14:11:01.423Z,11.1
2019-05-23T14:16:01.618Z,11.3
2019-05-23T14:21:01.405Z,11.0
2019-05-23T14:26:01.486Z,11.1
2019-05-23T14:31:01.391Z,11.4
2019-05-23T14:36:01.575Z,11.4
2019-05-23T14:41:01.574Z,11.2
2019-05-23T14:46:02.507Z,11.0
2019-05-23T14:51:01.532Z,10.4
2019-05-23T14:56:01.468Z,9.5
2019-05-23T15:01:01.401Z,9.2
2019-05-23T15:06:01.469Z,9.0
2019-05-23T15:11:01.416Z,8.6
2019-05-23T15:16:01.534Z,9.1
2019-05-23T15:21:01.433Z,9.3
2019-05-23T15:26:01.459Z,9.5
2019-05-23T15:31:01.413Z,9.6
2019-05-23T15:36:01.461Z,10.4
2019-05-23T15:41:01.468Z,10.2
2019-05-23T15:46:02.442Z,10.8
2019-05-23T15:51:01.871Z,11.6
2019-05-23T16:01:01.425Z,12.2
2019-05-23T16:06:01.474Z,13.2
2019-05-23T16:11:01.335Z,13.5
2019-05-23T16:16:01.474Z,13.6
2019-05-23T16:21:01.411Z,13.3
2019-05-23T16:26:01.611Z,13.3
2019-05-23T16:31:01.458Z,12.8
2019-05-23T16:36:06.531Z,13.0
2019-05-23T16:46:01.549Z,13.5
2019-05-23T16:51:06.403Z,13.5
2019-05-23T16:56:01.611Z,13.6
2019-05-23T17:01:01.388Z,14.0
2019-05-23T17:06:01.521Z,14.6
2019-05-23T17:11:01.409Z,15.3
2019-05-23T17:16:03.207Z,16.6
2019-05-23T17:21:06.376Z,17.9
2019-05-23T17:26:01.455Z,18.7
2019-05-23T17:31:06.408Z,19.2
2019-05-23T17:36:06.610Z,19.5
2019-05-23T17:41:06.416Z,19.8
2019-05-23T17:46:06.566Z,20.2
2019-05-23T17:51:06.422Z,20.3
2019-05-23T17:56:06.547Z,20.2
2019-05-23T18:01:02.541Z,19.7
2019-05-23T18:11:06.585Z,18.5
2019-05-23T18:16:06.515Z,17.8
2019-05-23T18:21:01.443Z,16.8
2019-05-23T18:26:01.574Z,16.6
2019-05-23T18:31:11.935Z,16.6
2019-05-23T18:36:11.575Z,15.7
2019-05-23T18:41:09.821Z,15.4
2019-05-23T18:46:06.548Z,14.7
2019-05-23T18:51:01.392Z,14.1
2019-05-23T18:56:01.498Z,12.5
2019-05-23T19:01:06.417Z,12.0
2019-05-23T19:06:06.415Z,11.2
2019-05-23T19:11:01.534Z,11.4
2019-05-23T19:16:01.449Z,10.8
2019-05-23T19:21:01.553Z,10.8
2019-05-23T19:26:01.534Z,10.7
2019-05-23T19:31:01.508Z,10.8
2019-05-23T19:41:01.477Z,10.8
2019-05-23T19:46:01.439Z,11.0
2019-05-23T19:51:01.740Z,11.0
2019-05-23T19:56:01.615Z,11.3
2019-05-23T20:01:02.845Z,11.6
2019-05-23T20:06:01.475Z,12.0
2019-05-23T20:11:01.520Z,12.5
2019-05-23T20:16:01.507Z,13.4
2019-05-23T20:22:01.405Z,13.4
2019-05-23T20:27:01.473Z,13.6
2019-05-23T20:32:01.404Z,13.8
2019-05-23T20:37:01.528Z,13.8
2019-05-23T20:42:12.455Z,13.7
2019-05-23T20:47:01.403Z,13.9
2019-05-23T20:52:01.423Z,15.0
2019-05-23T20:57:01.549Z,15.3
2019-05-23T21:02:06.823Z,15.6
2019-05-23T21:07:06.409Z,15.3
2019-05-23T21:12:01.403Z,15.1
2019-05-23T21:17:01.511Z,14.7
2019-05-23T21:22:01.411Z,15.2
2019-05-23T21:27:01.468Z,15.8
2019-05-23T21:32:01.450Z,16.8
2019-05-23T21:38:01.453Z,18.3
2019-05-23T21:43:01.598Z,19.7
2019-05-23T21:48:01.411Z,20.4
2019-05-23T21:53:01.989Z,21.1
2019-05-23T21:58:06.479Z,22.1
2019-05-23T22:03:01.628Z,22.8
2019-05-23T22:08:01.419Z,23.1
2019-05-23T22:13:05.277Z,23.4
2019-05-23T22:18:01.402Z,23.8
2019-05-23T22:23:01.476Z,24.3
2019-05-23T22:33:06.486Z,24.8
2019-05-23T22:38:01.441Z,25.5
2019-05-23T22:43:01.512Z,25.7
2019-05-23T22:48:01.434Z,25.9
2019-05-23T22:53:01.600Z,25.9
2019-05-23T23:03:01.573Z,26.0
2019-05-23T23:08:01.501Z,26.2
2019-05-23T23:13:01.495Z,26.2
2019-05-23T23:18:01.442Z,26.3
2019-05-23T23:23:01.492Z,26.2
2019-05-23T23:28:01.412Z,26.2
2019-05-23T23:33:01.492Z,26.0
2019-05-23T23:48:01.469Z,26.3
2019-05-23T23:53:01.534Z,26.5
2019-05-23T23:58:01.526Z,26.7
